Time;durP1;ratioP1;P1;durP2;ratioP2;P2;SDS_P1;SDS_P2;PMS_P1;PMS_P2;Temp;Humidity;BMP_temperature;BMP_pressure;BME280_temperature;BME280_humidity;BME280_pressure;Samples;Min_cycle;Max_cycle;Signal;HPM_P1;HPM_P2
2021/12/05 00:22:24;;;;;;;313.02;141.68;;;;;;;-5.54;67.52;93613.73;1668885;83;21050;-57
2021/12/05 00:24:56;;;;;;;310.52;139.00;;;;;;;-5.55;67.53;93618.11;1692057;83;21559;-58
2021/12/05 00:27:27;;;;;;;322.67;140.90;;;;;;;-5.47;67.77;93619.13;1703089;83;21521;-57
2021/12/05 00:30:01;;;;;;;302.68;134.87;;;;;;;-5.32;67.59;93614.60;1672484;84;21130;-57
2021/12/05 00:32:28;;;;;;;286.60;124.02;;;;;;;-5.14;67.64;93612.97;1692414;83;21051;-57
2021/12/05 00:35:16;;;;;;;366.27;155.30;;;;;;;-4.96;66.90;93605.02;1691466;83;21009;-58
2021/12/05 00:45:58;;;;;;;320.77;137.47;;;;;;;-5.06;66.62;93608.41;1705433;83;21104;-57
2021/12/05 00:51:43;;;;;;;324.67;138.52;;;;;;;-4.94;66.10;93605.41;1693804;83;21098;-57
2021/12/05 00:59:37;;;;;;;328.15;143.32;;;;;;;-5.25;65.72;93608.70;1701807;83;20955;-58
2021/12/05 01:04:45;;;;;;;283.45;123.62;;;;;;;-5.47;66.24;93626.38;1596646;87;21184;-57
2021/12/05 01:10:12;;;;;;;312.77;139.12;;;;;;;-5.56;66.39;93620.59;1630164;86;21546;-56
2021/12/05 01:12:42;;;;;;;313.37;138.20;;;;;;;-5.53;66.65;93620.63;1614672;86;21498;-57
2021/12/05 01:15:11;;;;;;;310.73;139.50;;;;;;;-5.41;66.98;93604.81;1671447;84;21019;-58
2021/12/05 01:18:07;;;;;;;300.40;130.40;;;;;;;-5.22;66.77;93602.03;1688529;83;21148;-57
2021/12/05 01:20:39;;;;;;;303.25;133.25;;;;;;;-5.10;66.42;93603.61;1696189;83;21097;-57
2021/12/05 01:23:21;;;;;;;325.50;137.47;;;;;;;-5.09;66.45;93598.45;1692239;83;21091;-57
2021/12/05 01:28:31;;;;;;;289.60;127.25;;;;;;;-5.20;66.25;93604.32;1704315;83;20971;-56
2021/12/05 01:30:54;;;;;;;263.40;119.55;;;;;;;-5.16;65.54;93589.05;1689578;83;20983;-58
2021/12/05 01:38:28;;;;;;;226.77;101.67;;;;;;;-5.46;65.03;93596.55;1681380;83;21069;-57
2021/12/05 01:40:59;;;;;;;247.75;109.80;;;;;;;-5.58;65.53;93595.52;1692709;83;20979;-57
2021/12/05 01:59:17;;;;;;;198.45;86.42;;;;;;;-5.45;66.34;93595.41;1688827;83;20978;-58
2021/12/05 02:34:53;;;;;;;219.93;93.85;;;;;;;-5.59;66.96;93565.11;1693466;83;21074;-57
2021/12/05 02:44:53;;;;;;;160.03;71.45;;;;;;;-5.29;66.64;93546.30;1695177;83;21066;-58
2021/12/05 02:47:24;;;;;;;199.20;87.67;;;;;;;-5.25;66.30;93540.38;1696272;83;20979;-57
2021/12/05 02:49:54;;;;;;;205.52;93.87;;;;;;;-5.37;65.68;93554.69;1692390;84;21011;-58
2021/12/05 02:52:28;;;;;;;223.62;98.97;;;;;;;-5.60;65.54;93558.97;1709204;83;21038;-57
2021/12/05 02:55:05;;;;;;;171.10;73.80;;;;;;;-5.78;65.76;93560.05;1711497;83;21142;-57
2021/12/05 02:57:47;;;;;;;200.10;82.85;;;;;;;-5.94;65.92;93556.89;1691103;83;20975;-56
2021/12/05 03:00:10;;;;;;;185.90;81.32;;;;;;;-6.01;66.53;93560.28;1695024;83;26702;-57
2021/12/05 03:02:40;;;;;;;216.25;87.90;;;;;;;-5.88;66.67;93558.84;1696274;83;21019;-56
2021/12/05 03:05:10;;;;;;;277.52;108.40;;;;;;;-5.81;66.39;93550.84;1708683;83;21454;-56
2021/12/05 03:07:39;;;;;;;260.80;107.55;;;;;;;-5.72;66.59;93551.83;1702845;83;21165;-57
2021/12/05 03:10:06;;;;;;;209.95;87.22;;;;;;;-5.66;66.51;93543.06;1682873;83;21015;-58
2021/12/05 03:12:36;;;;;;;175.95;72.92;;;;;;;-5.61;66.69;93537.94;1707202;83;20987;-57
2021/12/05 03:15:08;;;;;;;222.17;90.72;;;;;;;-5.59;66.87;93534.30;1690448;83;21126;-58
2021/12/05 03:17:34;;;;;;;215.77;89.92;;;;;;;-5.49;67.21;93534.36;1698666;83;20983;-57
2021/12/05 03:20:05;;;;;;;267.60;112.05;;;;;;;-5.40;66.85;93532.09;1686097;83;21158;-57
2021/12/05 03:22:31;;;;;;;266.08;112.57;;;;;;;-5.41;66.97;93533.23;1691880;83;21014;-57
2021/12/05 03:24:58;;;;;;;260.65;106.58;;;;;;;-5.32;66.95;93525.62;1672198;83;21083;-57
2021/12/05 03:27:25;;;;;;;266.30;108.32;;;;;;;-5.21;67.02;93522.39;1700018;83;20971;-57
2021/12/05 03:29:52;;;;;;;252.60;107.92;;;;;;;-5.07;66.68;93529.14;1689628;83;20971;-58
2021/12/05 03:32:20;;;;;;;240.87;105.60;;;;;;;-5.00;66.45;93526.50;1693166;83;21244;-57
2021/12/05 03:34:46;;;;;;;212.88;89.80;;;;;;;-4.86;67.02;93514.45;1690223;83;21229;-57
2021/12/05 03:37:13;;;;;;;187.50;77.15;;;;;;;-4.73;66.21;93514.29;1693373;83;21018;-57
2021/12/05 03:39:40;;;;;;;194.70;86.42;;;;;;;-4.85;65.80;93508.72;1696402;83;21569;-58
2021/12/05 03:42:07;;;;;;;171.47;75.95;;;;;;;-5.03;66.19;93511.16;1691669;83;21197;-57
2021/12/05 03:44:36;;;;;;;154.42;69.27;;;;;;;-4.96;66.21;93514.63;1695258;83;22308;-56
2021/12/05 03:47:05;;;;;;;157.00;81.78;;;;;;;-4.89;65.76;93516.00;1664656;84;21035;-57
2021/12/05 03:49:36;;;;;;;134.85;61.75;;;;;;;-4.87;65.99;93511.02;1701945;83;21007;-58
2021/12/05 03:52:13;;;;;;;207.98;109.10;;;;;;;-4.87;65.31;93522.30;1702766;83;20987;-57
2021/12/05 03:54:41;;;;;;;166.53;73.87;;;;;;;-4.99;65.62;93521.34;1685505;83;21034;-57
2021/12/05 03:57:07;;;;;;;184.30;86.08;;;;;;;-5.06;65.85;93510.02;1693933;83;21215;-58
2021/12/05 03:59:34;;;;;;;170.47;79.05;;;;;;;-5.00;66.33;93513.09;1702830;83;20959;-58
2021/12/05 04:02:03;;;;;;;147.20;68.50;;;;;;;-4.96;66.16;93505.83;1697338;83;21081;-57
2021/12/05 04:04:30;;;;;;;143.82;66.00;;;;;;;-4.91;66.02;93505.45;1691031;83;21019;-58
2021/12/05 04:06:57;;;;;;;156.02;70.97;;;;;;;-5.00;65.99;93510.42;1703838;83;21462;-57
2021/12/05 04:09:24;;;;;;;170.82;77.15;;;;;;;-5.07;66.29;93515.75;1686518;83;21162;-57
2021/12/05 04:12:03;;;;;;;167.32;76.42;;;;;;;-5.07;66.43;93515.19;1688741;83;21152;-56
2021/12/05 04:14:38;;;;;;;156.43;76.42;;;;;;;-4.94;66.33;93514.25;1704988;83;21113;-57
2021/12/05 04:17:07;;;;;;;163.95;72.12;;;;;;;-4.90;66.18;93516.36;1705136;83;21107;-56
2021/12/05 04:19:34;;;;;;;145.68;67.58;;;;;;;-4.86;66.34;93511.77;1694751;83;21003;-59
2021/12/05 04:22:03;;;;;;;164.00;77.62;;;;;;;-4.85;66.21;93520.00;1711904;83;21972;-58
2021/12/05 04:24:32;;;;;;;126.85;59.48;;;;;;;-4.92;66.40;93516.77;1702516;83;21031;-58
2021/12/05 04:26:58;;;;;;;128.87;62.20;;;;;;;-4.93;66.60;93510.42;1701640;83;21091;-58
2021/12/05 04:29:27;;;;;;;126.72;59.08;;;;;;;-4.98;66.69;93500.83;1688465;83;20979;-58
2021/12/05 04:31:53;;;;;;;110.97;52.60;;;;;;;-4.95;66.91;93497.39;1697490;83;20970;-58
2021/12/05 04:34:20;;;;;;;221.32;102.15;;;;;;;-4.89;66.68;93500.47;1699070;83;21135;-58
2021/12/05 04:36:47;;;;;;;200.43;92.50;;;;;;;-4.96;66.74;93498.53;1696178;83;21085;-57
2021/12/05 04:39:14;;;;;;;183.18;88.10;;;;;;;-4.94;66.86;93509.64;1687964;83;21093;-58
2021/12/05 04:41:43;;;;;;;171.47;87.92;;;;;;;-4.85;67.00;93515.42;1702744;83;20980;-57
2021/12/05 04:44:12;;;;;;;206.38;97.27;;;;;;;-4.77;66.81;93506.23;1701130;83;20971;-58
2021/12/05 04:46:40;;;;;;;215.92;107.78;;;;;;;-4.76;66.88;93499.72;1690173;83;21266;-58
2021/12/05 04:49:07;;;;;;;152.95;71.50;;;;;;;-4.65;67.61;93513.92;1681100;83;21404;-57
2021/12/05 04:51:39;;;;;;;152.95;71.92;;;;;;;-4.47;67.01;93510.67;1685866;83;21078;-57
2021/12/05 04:54:12;;;;;;;155.45;72.60;;;;;;;-4.52;66.87;93507.04;1702902;83;21613;-57
2021/12/05 04:56:40;;;;;;;141.57;62.05;;;;;;;-4.59;66.72;93502.99;1711324;83;21074;-58
2021/12/05 04:59:12;;;;;;;145.02;68.37;;;;;;;-4.62;66.54;93498.98;1691031;83;21173;-57
2021/12/05 05:01:44;;;;;;;125.78;58.65;;;;;;;-4.74;66.65;93496.67;1688387;83;21526;-57
2021/12/05 05:04:22;;;;;;;168.50;72.25;;;;;;;-4.82;66.98;93491.11;1693105;83;21002;-57
2021/12/05 05:06:40;;;;;;;174.65;80.62;;;;;;;-4.91;67.25;93497.41;1690377;83;21064;-57
2021/12/05 05:09:07;;;;;;;173.57;79.55;;;;;;;-4.95;67.37;93490.69;1706953;83;21059;-58
2021/12/05 05:11:33;;;;;;;136.85;62.55;;;;;;;-4.92;67.42;93500.67;1692106;83;21171;-58
2021/12/05 05:14:00;;;;;;;169.95;81.45;;;;;;;-4.89;67.07;93496.45;1691398;83;21016;-57
2021/12/05 05:16:27;;;;;;;176.60;80.95;;;;;;;-5.00;67.05;93491.66;1692559;83;21444;-57
2021/12/05 05:18:57;;;;;;;173.43;78.00;;;;;;;-5.03;67.30;93495.07;1688767;84;21573;-55
2021/12/05 05:39:16;;;;;;;177.15;80.97;;;;;;;-4.52;67.04;93490.16;1700350;83;21002;-57
2021/12/05 05:48:26;;;;;;;150.97;69.67;;;;;;;-4.53;66.99;93504.73;1594984;88;21042;-57
2021/12/05 05:50:23;;;;;;;174.27;80.83;;;;;;;-4.51;67.06;93499.19;1660777;83;21343;-58
2021/12/05 05:52:51;;;;;;;199.35;94.72;;;;;;;-4.52;67.10;93500.89;1696889;83;21549;-58
2021/12/05 05:55:17;;;;;;;191.15;85.50;;;;;;;-4.45;67.12;93506.28;1670889;83;21105;-58
2021/12/05 05:57:56;;;;;;;153.75;72.15;;;;;;;-4.40;67.17;93512.60;1688384;83;20975;-58
2021/12/05 06:00:30;;;;;;;215.50;92.72;;;;;;;-4.38;67.23;93510.30;1687749;83;21066;-58
2021/12/05 06:05:35;;;;;;;196.00;87.08;;;;;;;-4.16;67.15;93521.22;1701143;83;20948;-58
2021/12/05 06:08:03;;;;;;;184.65;83.52;;;;;;;-4.17;66.73;93521.03;1685909;83;21006;-57
2021/12/05 06:10:30;;;;;;;189.75;88.30;;;;;;;-4.19;66.77;93524.11;1698516;83;21070;-58
2021/12/05 06:12:58;;;;;;;208.02;100.45;;;;;;;-4.16;67.14;93521.22;1636354;84;20991;-57
2021/12/05 06:15:26;;;;;;;212.35;95.83;;;;;;;-4.07;67.41;93522.95;1667740;84;21800;-56
2021/12/05 06:17:54;;;;;;;217.03;102.35;;;;;;;-3.85;67.61;93524.45;1668220;84;20991;-57
2021/12/05 06:20:24;;;;;;;216.50;98.55;;;;;;;-3.70;66.86;93523.28;1671403;83;20995;-57
2021/12/05 06:22:51;;;;;;;188.90;94.50;;;;;;;-3.71;66.74;93524.44;1682460;83;21046;-57
2021/12/05 06:25:22;;;;;;;197.55;91.30;;;;;;;-3.65;66.83;93520.95;1695812;83;21070;-59
2021/12/05 06:27:50;;;;;;;165.68;83.82;;;;;;;-3.54;66.60;93522.29;1679354;83;21213;-56
2021/12/05 06:46:30;;;;;;;215.43;105.32;;;;;;;-3.59;66.33;93517.29;1677109;84;21241;-56
2021/12/05 06:48:55;;;;;;;182.82;92.95;;;;;;;-3.62;66.67;93518.85;1701184;83;21150;-56
2021/12/05 06:51:26;;;;;;;200.47;99.37;;;;;;;-3.55;66.95;93510.02;1684967;83;21027;-57
2021/12/05 06:53:53;;;;;;;236.43;120.53;;;;;;;-3.46;67.26;93508.44;1690614;83;21186;-57
2021/12/05 06:56:20;;;;;;;209.32;105.47;;;;;;;-3.25;67.62;93505.08;1673033;84;21063;-58
2021/12/05 06:58:47;;;;;;;204.10;107.65;;;;;;;-2.95;67.42;93504.00;1705397;83;21571;-57
2021/12/05 07:01:14;;;;;;;140.57;69.65;;;;;;;-2.80;66.82;93505.45;1702718;83;20987;-58
2021/12/05 07:03:45;;;;;;;171.32;88.87;;;;;;;-2.77;66.61;93507.36;1705507;83;21509;-57
2021/12/05 07:06:20;;;;;;;190.80;98.92;;;;;;;-2.77;66.32;93512.73;1696120;83;21128;-57
2021/12/05 07:08:43;;;;;;;187.27;98.85;;;;;;;-2.79;66.18;93516.41;1679361;83;21494;-58
2021/12/05 07:11:20;;;;;;;188.30;98.10;;;;;;;-2.83;66.04;93512.94;1699856;83;21007;-57
2021/12/05 07:21:46;;;;;;;;;;;;;;;;;;;;;
2021/12/05 07:24:44;;;;;;;204.28;105.75;;;;;;;-2.61;66.86;93510.91;1698012;83;20998;-57
2021/12/05 07:26:44;;;;;;;169.63;89.50;;;;;;;-2.57;67.03;93512.42;1672584;83;20972;-57
2021/12/05 07:42:47;;;;;;;205.95;112.08;;;;;;;-2.40;66.66;93507.50;1615710;87;21101;-57
2021/12/05 07:45:20;;;;;;;212.95;113.32;;;;;;;-2.33;66.72;93509.38;1619400;84;21183;-56
2021/12/05 07:47:49;;;;;;;204.50;115.10;;;;;;;-2.17;66.83;93502.32;1701687;83;20959;-58
2021/12/05 07:50:15;;;;;;;239.90;129.93;;;;;;;-1.91;66.75;93507.12;1710386;83;21003;-58
2021/12/05 07:52:46;;;;;;;258.23;139.85;;;;;;;-1.62;66.67;93508.37;1672931;84;20984;-57
2021/12/05 08:01:20;;;;;;;220.97;119.55;;;;;;;-1.36;65.96;93501.73;1618941;83;20959;-57
2021/12/05 08:16:49;;;;;;;154.40;85.03;;;;;;;-1.15;64.85;93500.73;1699944;83;21470;-57
2021/12/05 08:19:15;;;;;;;136.65;77.00;;;;;;;-1.23;64.78;93506.02;1671094;84;21101;-58
2021/12/05 08:21:45;;;;;;;178.97;98.92;;;;;;;-1.24;64.83;93505.84;1701085;83;21499;-58
2021/12/05 08:24:12;;;;;;;159.82;89.62;;;;;;;-1.23;65.00;93496.58;1703351;83;21175;-59
2021/12/05 08:26:40;;;;;;;122.22;65.80;;;;;;;-1.14;65.00;93498.22;1690087;83;21081;-58
2021/12/05 08:29:12;;;;;;;96.12;53.13;;;;;;;-0.99;64.63;93504.38;1687477;83;21446;-57
2021/12/05 08:34:45;;;;;;;102.70;55.90;;;;;;;-0.87;64.19;93499.03;1698086;83;21570;-58
2021/12/05 08:42:40;;;;;;;79.42;47.35;;;;;;;-0.97;64.39;93492.59;1673936;84;21031;-57
2021/12/05 09:38:33;;;;;;;140.90;86.15;;;;;;;0.22;64.20;93493.55;1647975;83;21118;-59
2021/12/05 10:16:27;;;;;;;43.92;30.62;;;;;;;1.59;61.74;93462.59;1685284;83;21089;-58
2021/12/05 10:38:45;;;;;;;96.57;62.10;;;;;;;1.98;61.61;93451.61;1690126;83;21156;-57
2021/12/05 10:41:46;;;;;;;107.52;69.75;;;;;;;2.19;61.43;93448.38;1687715;83;21069;-56
2021/12/05 10:43:53;;;;;;;80.25;50.70;;;;;;;2.40;61.39;93449.97;1694602;83;21014;-58
2021/12/05 10:46:22;;;;;;;95.60;57.95;;;;;;;2.67;60.71;93446.34;1693377;83;21007;-58
2021/12/05 10:49:03;;;;;;;110.70;70.20;;;;;;;2.75;60.55;93453.13;1700250;83;21007;-59
2021/12/05 10:51:37;;;;;;;93.20;62.20;;;;;;;2.89;60.34;93453.33;1705554;83;21068;-58
2021/12/05 10:54:13;;;;;;;95.35;57.20;;;;;;;3.08;60.13;93458.59;1705334;83;20967;-59
2021/12/05 10:56:52;;;;;;;92.35;61.75;;;;;;;3.21;59.64;93460.00;1685206;83;21058;-57
2021/12/05 10:59:24;;;;;;;99.85;65.65;;;;;;;3.14;59.56;93458.83;1672328;83;21571;-56
2021/12/05 11:02:04;;;;;;;99.57;65.63;;;;;;;3.20;59.47;93453.05;1697237;83;21006;-59
2021/12/05 11:04:35;;;;;;;95.75;63.40;;;;;;;3.23;59.58;93456.25;1692364;83;21146;-59
2021/12/05 11:07:18;;;;;;;91.72;58.20;;;;;;;3.21;59.65;93458.03;1685735;83;21143;-58
2021/12/05 11:09:48;;;;;;;82.10;50.28;;;;;;;3.18;59.67;93456.18;1704085;83;21010;-59
2021/12/05 11:12:28;;;;;;;77.53;48.23;;;;;;;3.10;59.64;93451.38;1695726;82;21650;-58
2021/12/05 11:15:01;;;;;;;87.67;55.63;;;;;;;3.04;59.90;93458.55;1715221;83;21045;-58
2021/12/05 11:17:33;;;;;;;114.88;80.60;;;;;;;3.04;60.15;93451.14;1710061;83;21148;-59
2021/12/05 11:20:09;;;;;;;;;;;;;;;3.18;60.14;93460.84;1692095;83;21168;-58
2021/12/05 11:22:42;;;;;;;103.97;66.50;;;;;;;3.25;60.10;93463.38;1707572;83;20156;-59
2021/12/05 11:25:19;;;;;;;91.00;58.40;;;;;;;3.03;60.40;93454.30;1709168;83;21081;-60
2021/12/05 11:27:50;;;;;;;112.57;74.27;;;;;;;2.83;60.71;93450.38;1709261;82;21532;-58
2021/12/05 11:30:23;;;;;;;130.85;81.25;;;;;;;2.59;61.26;93446.95;1711858;82;21158;-58
2021/12/05 11:33:00;;;;;;;;;;;;;;;2.46;61.90;93446.90;1714512;83;20958;-59
2021/12/05 11:35:44;;;;;;;152.40;82.72;;;;;;;2.32;62.19;93450.58;1684008;83;20465;-58
2021/12/05 11:38:16;;;;;;;181.10;98.95;;;;;;;2.15;62.88;93449.06;1688449;83;21057;-59
2021/12/05 11:41:10;;;;;;;177.40;99.37;;;;;;;2.07;63.38;93444.98;1711077;83;21469;-56
2021/12/05 11:43:54;;;;;;;169.68;96.67;;;;;;;2.19;63.28;93444.31;1686408;83;21157;-58
2021/12/05 11:46:35;;;;;;;160.45;90.60;;;;;;;2.32;63.37;93430.98;1711726;83;21540;-58
2021/12/05 11:49:10;;;;;;;157.27;89.30;;;;;;;2.55;63.27;93442.22;1709947;83;21049;-57
2021/12/05 11:51:45;;;;;;;155.27;93.27;;;;;;;2.60;62.92;93437.04;1708213;82;21066;-57
2021/12/05 11:54:31;;;;;;;208.00;116.75;;;;;;;2.66;63.38;93434.57;1712378;83;21010;-56
2021/12/05 11:57:06;;;;;;;204.65;122.07;;;;;;;2.82;63.21;93433.14;1709179;83;21171;-58
2021/12/05 11:59:47;;;;;;;235.15;140.28;;;;;;;2.99;63.01;93431.89;1711355;83;20954;-58
2021/12/05 12:02:25;;;;;;;257.23;153.07;;;;;;;3.13;63.35;93430.91;1704792;83;21005;-59
2021/12/05 12:05:20;;;;;;;195.45;120.22;;;;;;;3.30;63.32;93433.72;1710867;83;21090;-57
2021/12/05 12:08:07;;;;;;;183.03;109.42;;;;;;;3.28;62.83;93431.26;1686221;83;21234;-57
2021/12/05 12:10:47;;;;;;;153.25;96.08;;;;;;;3.01;63.30;93425.42;1712969;82;20974;-59
2021/12/05 12:13:23;;;;;;;185.07;109.87;;;;;;;2.85;63.65;93437.13;1681701;83;21391;-58
2021/12/05 12:15:58;;;;;;;182.47;107.30;;;;;;;2.75;63.91;93434.70;1707213;83;20962;-58
2021/12/05 12:18:28;;;;;;;188.65;108.63;;;;;;;2.72;64.18;93434.95;1688314;83;21014;-60
2021/12/05 12:20:50;;;;;;;188.55;111.72;;;;;;;2.81;64.57;93431.61;1682943;84;21509;-59
2021/12/05 12:23:20;;;;;;;183.70;116.28;;;;;;;2.93;64.40;93428.19;1689370;83;21135;-58
2021/12/05 12:25:50;;;;;;;179.10;106.58;;;;;;;2.96;64.42;93435.47;1666407;83;20962;-59
2021/12/05 12:28:17;;;;;;;198.25;123.75;;;;;;;2.97;64.21;93430.20;1709343;83;21109;-60
2021/12/05 12:30:52;;;;;;;206.17;121.00;;;;;;;2.88;64.81;93426.01;1685098;83;20982;-59
2021/12/05 12:33:34;;;;;;;198.40;116.85;;;;;;;2.93;65.00;93441.77;1710948;83;21001;-58
2021/12/05 12:36:01;;;;;;;225.97;134.20;;;;;;;2.82;65.17;93433.14;1708027;83;21159;-59
2021/12/05 12:38:44;;;;;;;228.60;133.95;;;;;;;2.73;65.73;93426.22;1688033;83;21490;-57
2021/12/05 12:41:20;;;;;;;;;;;;;;;2.84;65.57;93432.14;1711515;83;21058;-57
2021/12/05 12:43:52;;;;;;;192.07;111.92;;;;;;;2.92;64.99;93432.88;1704178;83;20144;-58
2021/12/05 12:46:38;;;;;;;170.17;102.32;;;;;;;2.78;64.69;93436.55;1703138;83;21101;-58
2021/12/05 12:49:20;;;;;;;160.80;100.10;;;;;;;2.59;64.88;93430.67;1688640;83;21865;-58
2021/12/05 12:52:13;;;;;;;157.85;99.75;;;;;;;2.42;65.66;93431.89;1715013;83;21014;-58
2021/12/05 12:54:50;;;;;;;170.57;104.23;;;;;;;2.38;66.21;93436.66;1711565;83;21010;-59
2021/12/05 12:57:32;;;;;;;196.98;112.80;;;;;;;2.52;66.26;93434.94;1689298;83;21200;-58
2021/12/05 13:00:11;;;;;;;180.12;102.17;;;;;;;2.63;65.95;93419.89;1712595;83;20942;-57
2021/12/05 13:02:57;;;;;;;190.32;113.65;;;;;;;2.75;65.42;93416.47;1710008;83;21915;-57
2021/12/05 13:05:22;;;;;;;;;;;;;;;2.76;65.41;93426.72;1712045;83;21506;-61
2021/12/05 13:10:47;;;;;;;201.88;112.90;;;;;;;2.60;66.11;93424.83;1713242;83;21045;-58
2021/12/05 13:13:23;;;;;;;235.45;142.70;;;;;;;2.46;66.79;93431.20;1712009;83;21059;-58
2021/12/05 13:15:53;;;;;;;208.55;119.35;;;;;;;2.29;67.16;93433.80;1709398;82;21180;-58
2021/12/05 13:18:29;;;;;;;203.40;118.97;;;;;;;2.18;67.69;93437.36;1708313;83;21389;-58
2021/12/05 13:21:10;;;;;;;219.68;132.47;;;;;;;2.20;68.12;93429.56;1687233;83;21054;-58
2021/12/05 13:23:52;;;;;;;216.85;123.82;;;;;;;2.35;68.36;93424.69;1645756;86;21057;-59
2021/12/05 13:26:39;;;;;;;209.62;123.05;;;;;;;2.50;68.04;93423.75;1667559;85;21078;-59
2021/12/05 13:29:22;;;;;;;184.15;107.03;;;;;;;2.48;68.15;93422.06;1617341;85;21192;-59
2021/12/05 13:32:05;;;;;;;174.60;104.85;;;;;;;2.45;68.27;93425.61;1664309;85;20985;-60
2021/12/05 13:34:51;;;;;;;180.18;107.92;;;;;;;2.41;68.33;93416.80;1669376;85;21039;-59
2021/12/05 13:37:29;;;;;;;180.72;108.97;;;;;;;2.34;68.41;93431.31;1671664;85;22592;-56
2021/12/05 13:40:26;;;;;;;189.47;114.00;;;;;;;2.30;68.74;93434.72;1662831;85;20978;-60
2021/12/05 13:42:56;;;;;;;187.20;117.15;;;;;;;2.28;68.78;93433.02;1659671;85;22157;-59
2021/12/05 13:45:32;;;;;;;232.25;136.85;;;;;;;2.28;68.95;93435.73;1662414;85;21069;-58
2021/12/05 13:48:08;;;;;;;213.20;130.65;;;;;;;2.26;68.95;93440.05;1644112;86;21601;-57
2021/12/05 13:50:51;;;;;;;254.80;143.02;;;;;;;2.33;69.09;93437.18;1664939;85;21560;-58
2021/12/05 13:53:22;;;;;;;274.30;158.18;;;;;;;2.41;68.55;93435.22;1669975;85;21038;-59
2021/12/05 13:56:01;;;;;;;303.20;171.30;;;;;;;2.41;68.57;93420.29;1709107;83;22187;-59
2021/12/05 13:58:44;;;;;;;291.57;172.43;;;;;;;2.45;68.71;93424.25;1705376;83;21075;-58
2021/12/05 14:01:30;;;;;;;279.93;166.80;;;;;;;2.52;68.75;93434.94;1709904;83;21033;-58
2021/12/05 14:04:23;;;;;;;228.80;141.40;;;;;;;2.52;68.59;93451.97;1711515;83;21442;-57
2021/12/05 14:07:01;;;;;;;227.13;133.43;;;;;;;2.51;68.34;93464.62;1709681;83;20994;-59
2021/12/05 14:09:49;;;;;;;217.95;124.05;;;;;;;2.42;68.62;93461.16;1713323;83;21819;-58
2021/12/05 14:12:37;;;;;;;247.17;148.00;;;;;;;2.43;68.71;93458.61;1708214;83;20962;-59
2021/12/05 14:15:02;;;;;;;278.42;160.43;;;;;;;2.34;68.88;93458.44;1711898;82;21581;-58
2021/12/05 14:17:40;;;;;;;294.20;168.65;;;;;;;2.21;69.12;93462.28;1687574;83;21007;-57
2021/12/05 14:20:12;;;;;;;260.63;150.97;;;;;;;2.03;69.56;93466.01;1711447;83;21006;-60
2021/12/05 14:22:41;;;;;;;288.65;170.35;;;;;;;1.89;70.06;93467.11;1712334;83;21157;-59
2021/12/05 14:25:17;;;;;;;290.00;168.20;;;;;;;1.84;70.70;93463.56;1709739;83;21574;-60
2021/12/05 14:27:54;;;;;;;275.22;160.93;;;;;;;1.87;70.88;93461.94;1709638;83;21553;-57
2021/12/05 14:30:23;;;;;;;284.98;173.55;;;;;;;1.98;71.04;93470.59;1708556;83;20994;-59
2021/12/05 14:32:58;;;;;;;293.42;171.15;;;;;;;2.04;70.91;93479.73;1710684;83;21479;-57
2021/12/05 14:35:32;;;;;;;286.02;171.28;;;;;;;2.10;71.11;93478.06;1711242;83;21857;-60
2021/12/05 14:38:01;;;;;;;334.77;197.47;;;;;;;2.21;71.20;93486.69;1690305;83;21081;-59
2021/12/05 14:40:30;;;;;;;337.90;195.92;;;;;;;2.33;71.20;93487.38;1710609;83;21835;-58
2021/12/05 14:43:04;;;;;;;351.52;206.80;;;;;;;2.50;70.92;93486.17;1688890;83;21482;-60
2021/12/05 14:45:37;;;;;;;333.50;200.97;;;;;;;2.57;70.37;93474.54;1710978;83;21026;-58
2021/12/05 14:48:08;;;;;;;309.98;185.93;;;;;;;2.54;70.40;93469.94;1709015;83;21913;-57
2021/12/05 14:50:35;;;;;;;293.70;177.02;;;;;;;2.56;70.41;93468.17;1689157;83;21066;-58
2021/12/05 14:53:05;;;;;;;360.08;209.87;;;;;;;2.50;70.39;93475.31;1709499;83;21061;-59
2021/12/05 14:55:36;;;;;;;361.73;200.75;;;;;;;2.35;70.59;93475.50;1710007;83;21045;-59
2021/12/05 14:58:06;;;;;;;405.73;227.53;;;;;;;2.24;70.59;93482.55;1710007;82;21009;-61
2021/12/05 15:00:39;;;;;;;404.53;233.45;;;;;;;2.12;70.78;93479.75;1710493;83;22366;-60
2021/12/05 15:03:17;;;;;;;410.57;233.32;;;;;;;2.04;71.08;93479.73;1688137;83;21021;-59
2021/12/05 15:06:02;;;;;;;391.00;219.28;;;;;;;2.05;71.34;93476.61;1711695;83;21434;-58
2021/12/05 15:08:30;;;;;;;379.68;213.60;;;;;;;2.10;71.29;93474.00;1710871;82;21053;-60
2021/12/05 15:11:01;;;;;;;421.05;237.82;;;;;;;2.10;70.78;93474.74;1690924;83;20989;-60
2021/12/05 15:13:29;;;;;;;399.17;225.75;;;;;;;1.98;70.81;93461.10;1710619;83;21035;-60
2021/12/05 15:15:58;;;;;;;392.40;233.75;;;;;;;1.96;71.39;93475.68;1707636;83;20962;-59
2021/12/05 15:18:29;;;;;;;410.60;233.25;;;;;;;2.01;71.33;93469.16;1710763;83;20966;-57
2021/12/05 15:20:55;;;;;;;401.95;236.85;;;;;;;2.07;71.09;93462.61;1710613;83;20998;-58
2021/12/05 15:23:27;;;;;;;402.95;243.30;;;;;;;2.13;70.83;93469.82;1708375;83;21608;-57
2021/12/05 15:25:55;;;;;;;383.90;228.10;;;;;;;2.15;70.82;93474.84;1711074;83;21166;-60
2021/12/05 15:28:23;;;;;;;393.30;237.35;;;;;;;2.16;70.40;93483.89;1687827;83;21484;-59
2021/12/05 15:30:53;;;;;;;405.75;242.80;;;;;;;2.12;70.26;93481.11;1665117;83;21055;-61
2021/12/05 15:33:22;;;;;;;401.10;240.00;;;;;;;2.00;70.29;93472.28;1687287;83;21074;-58
2021/12/05 15:35:50;;;;;;;371.98;222.10;;;;;;;1.87;70.62;93478.20;1666006;82;21038;-58
2021/12/05 15:38:22;;;;;;;372.23;222.70;;;;;;;1.76;70.71;93463.54;1711097;83;21926;-57
2021/12/05 15:40:50;;;;;;;371.25;220.65;;;;;;;1.62;70.91;93469.87;1710289;82;21069;-58
2021/12/05 15:43:20;;;;;;;381.93;227.20;;;;;;;1.53;71.34;93477.81;1686609;83;20994;-59
2021/12/05 15:45:50;;;;;;;407.12;243.20;;;;;;;1.44;71.52;93473.57;1688011;83;21011;-60
2021/12/05 15:48:37;;;;;;;402.28;235.45;;;;;;;1.37;71.71;93469.67;1708947;83;21002;-58
2021/12/05 15:51:12;;;;;;;400.92;244.18;;;;;;;1.28;71.63;93478.19;1688680;83;20955;-61
2021/12/05 15:53:41;;;;;;;402.47;237.48;;;;;;;1.19;71.92;93482.82;1712233;83;21122;-60
2021/12/05 15:56:14;;;;;;;398.15;234.15;;;;;;;1.11;71.74;93482.03;1688597;83;21409;-58
2021/12/05 15:58:46;;;;;;;381.93;226.15;;;;;;;1.05;71.71;93483.10;1709307;83;21421;-59
2021/12/05 16:01:19;;;;;;;368.23;211.22;;;;;;;1.03;71.95;93475.98;1688860;83;21061;-61
2021/12/05 16:03:55;;;;;;;363.15;212.12;;;;;;;1.01;71.89;93475.64;1688613;83;22283;-58
2021/12/05 16:06:36;;;;;;;344.80;206.30;;;;;;;0.96;71.81;93477.47;1709800;83;21145;-58
2021/12/05 16:09:18;;;;;;;437.55;244.87;;;;;;;0.88;71.85;93483.44;1709742;83;21026;-57
2021/12/05 16:11:47;;;;;;;403.12;242.77;;;;;;;0.76;72.08;93490.23;1711774;82;21430;-58
2021/12/05 16:14:39;;;;;;;391.68;235.05;;;;;;;0.61;72.53;93494.98;1686419;83;20954;-57
2021/12/05 16:17:23;;;;;;;389.63;228.90;;;;;;;0.61;73.17;93493.63;1709985;83;21826;-59
2021/12/05 16:20:09;;;;;;;408.23;247.22;;;;;;;0.65;73.12;93499.16;1707881;83;21061;-58
2021/12/05 16:22:59;;;;;;;428.10;258.63;;;;;;;0.65;72.75;93491.04;1696926;83;21474;-60
2021/12/05 16:25:26;;;;;;;392.23;229.53;;;;;;;0.67;73.12;93491.39;1710227;83;20981;-59
2021/12/05 16:28:01;;;;;;;399.20;233.93;;;;;;;0.74;72.71;93496.66;1711223;83;21097;-57
2021/12/05 16:30:30;;;;;;;436.00;259.67;;;;;;;0.81;72.46;93499.22;1708023;83;21143;-58
2021/12/05 16:33:00;;;;;;;509.85;293.02;;;;;;;0.91;72.11;93505.03;1705220;83;21037;-57
2021/12/05 16:35:37;;;;;;;469.28;273.15;;;;;;;0.89;71.82;93503.33;1712713;83;21017;-58
2021/12/05 16:38:32;;;;;;;403.60;232.32;;;;;;;0.87;71.79;93507.63;1688303;83;21009;-58
2021/12/05 16:41:18;;;;;;;359.43;202.35;;;;;;;0.90;71.75;93510.27;1708863;83;21132;-58
2021/12/05 16:44:05;;;;;;;397.72;239.42;;;;;;;0.89;71.37;93514.16;1712758;83;21168;-57
2021/12/05 16:46:37;;;;;;;320.40;188.05;;;;;;;0.92;71.19;93520.09;1707810;83;21073;-58
2021/12/05 16:49:11;;;;;;;353.50;204.45;;;;;;;0.80;70.92;93519.34;1706928;83;20981;-58